sensor_id;sensor_type;location;lat;lon;timestamp;P1;durP1;ratioP1;P2;durP2;ratioP2
12878;SDS011;20617;49.476;10.986;2023-01-13T00:03:29;1.77;;;0.77;;
12878;SDS011;20617;49.476;10.986;2023-01-13T00:05:34;3.30;;;0.90;;
12878;SDS011;20617;49.476;10.986;2023-01-13T00:07:40;1.52;;;0.70;;
12878;SDS011;20617;49.476;10.986;2023-01-13T00:09:44;2.00;;;0.80;;
12878;SDS011;20617;49.476;10.986;2023-01-13T00:11:49;2.50;;;0.63;;
12878;SDS011;20617;49.476;10.986;2023-01-13T00:13:57;3.05;;;0.60;;
12878;SDS011;20617;49.476;10.986;2023-01-13T00:16:02;3.92;;;0.75;;
12878;SDS011;20617;49.476;10.986;2023-01-13T00:18:09;2.88;;;0.80;;
12878;SDS011;20617;49.476;10.986;2023-01-13T00:20:14;1.88;;;0.70;;
12878;SDS011;20617;49.476;10.986;2023-01-13T00:22:19;2.35;;;0.88;;
12878;SDS011;20617;49.476;10.986;2023-01-13T00:24:24;2.92;;;0.88;;
12878;SDS011;20617;49.476;10.986;2023-01-13T00:26:29;2.55;;;0.68;;
12878;SDS011;20617;49.476;10.986;2023-01-13T00:28:36;2.05;;;0.70;;
12878;SDS011;20617;49.476;10.986;2023-01-13T00:30:43;3.47;;;1.35;;
12878;SDS011;20617;49.476;10.986;2023-01-13T00:32:48;2.53;;;0.60;;
12878;SDS011;20617;49.476;10.986;2023-01-13T00:34:56;1.83;;;0.65;;
12878;SDS011;20617;49.476;10.986;2023-01-13T00:37:02;1.05;;;0.70;;
12878;SDS011;20617;49.476;10.986;2023-01-13T00:39:06;2.25;;;0.90;;
12878;SDS011;20617;49.476;10.986;2023-01-13T00:41:12;3.17;;;0.82;;
12878;SDS011;20617;49.476;10.986;2023-01-13T00:43:18;2.88;;;0.50;;
12878;SDS011;20617;49.476;10.986;2023-01-13T00:45:23;3.17;;;0.68;;
12878;SDS011;20617;49.476;10.986;2023-01-13T00:47:31;1.80;;;0.98;;
12878;SDS011;20617;49.476;10.986;2023-01-13T00:49:35;1.48;;;0.65;;
12878;SDS011;20617;49.476;10.986;2023-01-13T00:51:40;1.00;;;0.63;;
12878;SDS011;20617;49.476;10.986;2023-01-13T00:53:45;2.15;;;0.70;;
12878;SDS011;20617;49.476;10.986;2023-01-13T00:55:57;1.63;;;0.57;;
12878;SDS011;20617;49.476;10.986;2023-01-13T00:58:02;1.15;;;0.50;;
12878;SDS011;20617;49.476;10.986;2023-01-13T01:00:08;2.72;;;0.60;;
12878;SDS011;20617;49.476;10.986;2023-01-13T01:02:14;1.65;;;0.40;;
12878;SDS011;20617;49.476;10.986;2023-01-13T01:04:21;3.70;;;0.85;;
12878;SDS011;20617;49.476;10.986;2023-01-13T01:06:26;2.10;;;0.70;;
12878;SDS011;20617;49.476;10.986;2023-01-13T01:10:36;1.25;;;0.60;;
12878;SDS011;20617;49.476;10.986;2023-01-13T01:12:40;2.75;;;0.70;;
12878;SDS011;20617;49.476;10.986;2023-01-13T01:14:45;2.17;;;1.00;;
12878;SDS011;20617;49.476;10.986;2023-01-13T01:16:50;2.30;;;0.90;;
12878;SDS011;20617;49.476;10.986;2023-01-13T01:18:55;3.65;;;0.90;;
12878;SDS011;20617;49.476;10.986;2023-01-13T01:23:07;1.73;;;0.50;;
12878;SDS011;20617;49.476;10.986;2023-01-13T01:25:12;3.40;;;0.43;;
12878;SDS011;20617;49.476;10.986;2023-01-13T01:27:17;2.17;;;0.70;;
12878;SDS011;20617;49.476;10.986;2023-01-13T01:29:21;3.92;;;0.68;;
12878;SDS011;20617;49.476;10.986;2023-01-13T01:31:27;2.17;;;0.70;;
12878;SDS011;20617;49.476;10.986;2023-01-13T01:33:34;1.52;;;0.60;;
12878;SDS011;20617;49.476;10.986;2023-01-13T01:35:41;1.27;;;0.73;;
12878;SDS011;20617;49.476;10.986;2023-01-13T01:37:48;4.28;;;0.70;;
12878;SDS011;20617;49.476;10.986;2023-01-13T01:39:53;2.30;;;0.70;;
12878;SDS011;20617;49.476;10.986;2023-01-13T01:41:58;1.70;;;0.77;;
12878;SDS011;20617;49.476;10.986;2023-01-13T01:46:51;3.42;;;0.88;;
12878;SDS011;20617;49.476;10.986;2023-01-13T01:48:59;2.33;;;0.95;;
12878;SDS011;20617;49.476;10.986;2023-01-13T01:51:10;1.95;;;0.55;;
12878;SDS011;20617;49.476;10.986;2023-01-13T01:53:19;1.42;;;0.70;;
12878;SDS011;20617;49.476;10.986;2023-01-13T01:55:28;4.53;;;0.70;;
12878;SDS011;20617;49.476;10.986;2023-01-13T01:57:38;1.60;;;0.80;;
12878;SDS011;20617;49.476;10.986;2023-01-13T01:59:47;3.13;;;0.50;;
12878;SDS011;20617;49.476;10.986;2023-01-13T02:01:52;1.98;;;0.60;;
12878;SDS011;20617;49.476;10.986;2023-01-13T02:03:58;2.35;;;0.77;;
12878;SDS011;20617;49.476;10.986;2023-01-13T02:06:07;1.13;;;0.50;;
12878;SDS011;20617;49.476;10.986;2023-01-13T02:10:21;1.27;;;0.50;;
12878;SDS011;20617;49.476;10.986;2023-01-13T02:12:28;2.72;;;0.65;;
12878;SDS011;20617;49.476;10.986;2023-01-13T02:14:31;1.83;;;0.80;;
12878;SDS011;20617;49.476;10.986;2023-01-13T02:16:38;0.88;;;0.40;;
12878;SDS011;20617;49.476;10.986;2023-01-13T02:18:50;1.27;;;0.60;;
12878;SDS011;20617;49.476;10.986;2023-01-13T02:21:11;0.85;;;0.60;;
12878;SDS011;20617;49.476;10.986;2023-01-13T02:28:59;2.90;;;0.80;;
12878;SDS011;20617;49.476;10.986;2023-01-13T02:31:30;2.47;;;0.50;;
12878;SDS011;20617;49.476;10.986;2023-01-13T02:33:50;2.85;;;0.70;;
12878;SDS011;20617;49.476;10.986;2023-01-13T02:36:05;2.25;;;0.80;;
12878;SDS011;20617;49.476;10.986;2023-01-13T02:38:19;2.20;;;0.85;;
12878;SDS011;20617;49.476;10.986;2023-01-13T02:40:32;1.15;;;0.60;;
12878;SDS011;20617;49.476;10.986;2023-01-13T02:42:43;0.82;;;0.40;;
12878;SDS011;20617;49.476;10.986;2023-01-13T02:45:05;1.20;;;0.75;;
12878;SDS011;20617;49.476;10.986;2023-01-13T02:47:18;3.15;;;0.60;;
12878;SDS011;20617;49.476;10.986;2023-01-13T02:49:26;3.22;;;1.30;;
12878;SDS011;20617;49.476;10.986;2023-01-13T02:51:37;2.30;;;1.00;;
12878;SDS011;20617;49.476;10.986;2023-01-13T02:53:45;2.20;;;0.75;;
12878;SDS011;20617;49.476;10.986;2023-01-13T02:55:54;1.45;;;0.65;;
12878;SDS011;20617;49.476;10.986;2023-01-13T02:58:02;1.42;;;0.50;;
12878;SDS011;20617;49.476;10.986;2023-01-13T03:00:10;1.65;;;0.55;;
12878;SDS011;20617;49.476;10.986;2023-01-13T03:02:20;1.77;;;0.50;;
12878;SDS011;20617;49.476;10.986;2023-01-13T03:07:00;1.40;;;0.52;;
12878;SDS011;20617;49.476;10.986;2023-01-13T03:09:14;3.67;;;0.70;;
12878;SDS011;20617;49.476;10.986;2023-01-13T03:11:22;1.45;;;0.65;;
12878;SDS011;20617;49.476;10.986;2023-01-13T03:16:14;2.85;;;0.60;;
12878;SDS011;20617;49.476;10.986;2023-01-13T03:18:31;1.65;;;0.60;;
12878;SDS011;20617;49.476;10.986;2023-01-13T03:20:46;1.13;;;0.60;;
12878;SDS011;20617;49.476;10.986;2023-01-13T03:22:59;0.82;;;0.40;;
12878;SDS011;20617;49.476;10.986;2023-01-13T03:25:09;0.85;;;0.50;;
12878;SDS011;20617;49.476;10.986;2023-01-13T03:27:20;2.22;;;0.52;;
12878;SDS011;20617;49.476;10.986;2023-01-13T03:29:31;2.78;;;0.52;;
12878;SDS011;20617;49.476;10.986;2023-01-13T03:31:40;2.38;;;0.80;;
12878;SDS011;20617;49.476;10.986;2023-01-13T03:33:53;1.48;;;0.52;;
12878;SDS011;20617;49.476;10.986;2023-01-13T03:36:02;3.35;;;0.73;;
12878;SDS011;20617;49.476;10.986;2023-01-13T03:38:12;1.75;;;0.50;;
12878;SDS011;20617;49.476;10.986;2023-01-13T03:40:24;1.73;;;0.60;;
12878;SDS011;20617;49.476;10.986;2023-01-13T03:42:32;1.70;;;0.50;;
12878;SDS011;20617;49.476;10.986;2023-01-13T03:44:41;2.15;;;0.40;;
12878;SDS011;20617;49.476;10.986;2023-01-13T03:46:51;3.92;;;1.30;;
12878;SDS011;20617;49.476;10.986;2023-01-13T03:49:07;1.27;;;0.60;;
12878;SDS011;20617;49.476;10.986;2023-01-13T03:51:16;3.45;;;0.63;;
12878;SDS011;20617;49.476;10.986;2023-01-13T03:53:28;1.08;;;0.60;;
12878;SDS011;20617;49.476;10.986;2023-01-13T03:55:36;2.08;;;0.60;;
12878;SDS011;20617;49.476;10.986;2023-01-13T03:57:48;3.38;;;0.60;;
12878;SDS011;20617;49.476;10.986;2023-01-13T03:59:58;2.50;;;0.50;;
12878;SDS011;20617;49.476;10.986;2023-01-13T04:02:13;1.48;;;0.40;;
12878;SDS011;20617;49.476;10.986;2023-01-13T04:04:25;0.88;;;0.40;;
12878;SDS011;20617;49.476;10.986;2023-01-13T04:06:35;0.47;;;0.38;;
12878;SDS011;20617;49.476;10.986;2023-01-13T04:08:46;1.15;;;0.60;;
12878;SDS011;20617;49.476;10.986;2023-01-13T04:10:57;1.40;;;0.52;;
12878;SDS011;20617;49.476;10.986;2023-01-13T04:13:06;2.80;;;1.15;;
12878;SDS011;20617;49.476;10.986;2023-01-13T04:15:16;0.85;;;0.40;;
12878;SDS011;20617;49.476;10.986;2023-01-13T04:17:23;0.85;;;0.50;;
12878;SDS011;20617;49.476;10.986;2023-01-13T04:19:30;1.58;;;0.70;;
12878;SDS011;20617;49.476;10.986;2023-01-13T04:21:35;1.27;;;0.55;;
12878;SDS011;20617;49.476;10.986;2023-01-13T04:23:40;1.13;;;0.60;;
12878;SDS011;20617;49.476;10.986;2023-01-13T04:25:45;1.67;;;0.70;;
12878;SDS011;20617;49.476;10.986;2023-01-13T04:27:50;1.67;;;0.55;;
12878;SDS011;20617;49.476;10.986;2023-01-13T04:29:55;2.00;;;0.85;;
12878;SDS011;20617;49.476;10.986;2023-01-13T04:32:00;3.42;;;0.85;;
12878;SDS011;20617;49.476;10.986;2023-01-13T04:34:05;2.55;;;0.57;;
12878;SDS011;20617;49.476;10.986;2023-01-13T04:36:13;1.58;;;0.60;;
12878;SDS011;20617;49.476;10.986;2023-01-13T04:38:20;1.02;;;0.40;;
12878;SDS011;20617;49.476;10.986;2023-01-13T04:42:30;1.60;;;0.50;;
12878;SDS011;20617;49.476;10.986;2023-01-13T04:44:35;1.75;;;0.73;;
12878;SDS011;20617;49.476;10.986;2023-01-13T04:46:39;1.60;;;0.82;;
12878;SDS011;20617;49.476;10.986;2023-01-13T04:48:44;3.45;;;1.05;;
12878;SDS011;20617;49.476;10.986;2023-01-13T04:50:49;2.10;;;0.93;;
12878;SDS011;20617;49.476;10.986;2023-01-13T04:52:57;1.58;;;0.80;;
12878;SDS011;20617;49.476;10.986;2023-01-13T04:55:01;1.85;;;1.13;;
12878;SDS011;20617;49.476;10.986;2023-01-13T04:57:07;1.50;;;0.70;;
12878;SDS011;20617;49.476;10.986;2023-01-13T04:59:12;2.35;;;0.70;;
12878;SDS011;20617;49.476;10.986;2023-01-13T05:01:17;1.67;;;0.80;;
12878;SDS011;20617;49.476;10.986;2023-01-13T05:03:22;2.15;;;0.85;;
12878;SDS011;20617;49.476;10.986;2023-01-13T05:05:28;1.70;;;0.80;;
12878;SDS011;20617;49.476;10.986;2023-01-13T05:07:33;3.88;;;0.93;;
12878;SDS011;20617;49.476;10.986;2023-01-13T05:11:46;1.70;;;0.80;;
12878;SDS011;20617;49.476;10.986;2023-01-13T05:14:03;1.77;;;1.10;;
12878;SDS011;20617;49.476;10.986;2023-01-13T05:16:20;1.63;;;0.95;;
12878;SDS011;20617;49.476;10.986;2023-01-13T05:18:38;1.85;;;1.10;;
12878;SDS011;20617;49.476;10.986;2023-01-13T05:20:42;1.15;;;0.70;;
12878;SDS011;20617;49.476;10.986;2023-01-13T05:22:47;3.17;;;1.00;;
12878;SDS011;20617;49.476;10.986;2023-01-13T05:25:09;1.58;;;0.80;;
12878;SDS011;20617;49.476;10.986;2023-01-13T05:27:25;2.63;;;0.80;;
12878;SDS011;20617;49.476;10.986;2023-01-13T05:29:30;4.40;;;0.88;;
12878;SDS011;20617;49.476;10.986;2023-01-13T05:31:35;3.95;;;0.70;;
12878;SDS011;20617;49.476;10.986;2023-01-13T05:33:40;1.17;;;0.80;;
12878;SDS011;20617;49.476;10.986;2023-01-13T05:35:45;1.35;;;0.65;;
12878;SDS011;20617;49.476;10.986;2023-01-13T05:37:51;2.13;;;1.00;;
12878;SDS011;20617;49.476;10.986;2023-01-13T05:39:57;3.42;;;0.93;;
12878;SDS011;20617;49.476;10.986;2023-01-13T05:42:17;4.25;;;1.00;;
12878;SDS011;20617;49.476;10.986;2023-01-13T05:44:34;1.77;;;0.95;;
12878;SDS011;20617;49.476;10.986;2023-01-13T05:46:39;3.70;;;1.15;;
12878;SDS011;20617;49.476;10.986;2023-01-13T05:48:44;1.50;;;0.70;;
12878;SDS011;20617;49.476;10.986;2023-01-13T05:50:49;2.33;;;0.82;;
12878;SDS011;20617;49.476;10.986;2023-01-13T05:54:59;2.40;;;0.90;;
12878;SDS011;20617;49.476;10.986;2023-01-13T05:57:03;3.20;;;1.42;;
12878;SDS011;20617;49.476;10.986;2023-01-13T05:59:11;2.67;;;1.02;;
12878;SDS011;20617;49.476;10.986;2023-01-13T06:01:16;3.55;;;0.80;;
12878;SDS011;20617;49.476;10.986;2023-01-13T06:03:21;2.40;;;1.02;;
12878;SDS011;20617;49.476;10.986;2023-01-13T06:05:25;1.50;;;0.73;;
12878;SDS011;20617;49.476;10.986;2023-01-13T06:07:31;2.20;;;0.90;;
12878;SDS011;20617;49.476;10.986;2023-01-13T06:09:35;2.50;;;1.00;;
12878;SDS011;20617;49.476;10.986;2023-01-13T06:11:40;3.88;;;0.90;;
12878;SDS011;20617;49.476;10.986;2023-01-13T06:13:45;2.25;;;0.77;;
12878;SDS011;20617;49.476;10.986;2023-01-13T06:15:53;3.13;;;1.20;;
12878;SDS011;20617;49.476;10.986;2023-01-13T06:18:00;1.63;;;1.08;;
12878;SDS011;20617;49.476;10.986;2023-01-13T06:20:06;3.10;;;1.27;;
12878;SDS011;20617;49.476;10.986;2023-01-13T06:22:14;2.03;;;1.10;;
12878;SDS011;20617;49.476;10.986;2023-01-13T06:24:20;2.78;;;1.17;;
12878;SDS011;20617;49.476;10.986;2023-01-13T06:28:31;2.10;;;1.10;;
12878;SDS011;20617;49.476;10.986;2023-01-13T06:30:37;1.67;;;1.05;;
12878;SDS011;20617;49.476;10.986;2023-01-13T06:32:48;4.35;;;1.42;;
12878;SDS011;20617;49.476;10.986;2023-01-13T06:34:57;3.75;;;1.50;;
12878;SDS011;20617;49.476;10.986;2023-01-13T06:37:06;3.50;;;1.20;;
12878;SDS011;20617;49.476;10.986;2023-01-13T06:39:12;3.78;;;1.73;;
12878;SDS011;20617;49.476;10.986;2023-01-13T06:41:23;3.28;;;1.10;;
12878;SDS011;20617;49.476;10.986;2023-01-13T06:43:43;1.90;;;1.30;;
12878;SDS011;20617;49.476;10.986;2023-01-13T06:45:49;2.78;;;1.55;;
12878;SDS011;20617;49.476;10.986;2023-01-13T06:47:58;2.13;;;1.10;;
12878;SDS011;20617;49.476;10.986;2023-01-13T06:50:04;3.05;;;1.42;;
12878;SDS011;20617;49.476;10.986;2023-01-13T06:52:09;1.98;;;1.10;;
12878;SDS011;20617;49.476;10.986;2023-01-13T06:54:14;2.78;;;1.65;;
12878;SDS011;20617;49.476;10.986;2023-01-13T06:56:18;3.03;;;1.35;;
12878;SDS011;20617;49.476;10.986;2023-01-13T06:58:23;3.75;;;1.23;;
12878;SDS011;20617;49.476;10.986;2023-01-13T07:00:28;2.80;;;1.33;;
12878;SDS011;20617;49.476;10.986;2023-01-13T07:02:33;2.35;;;1.08;;
12878;SDS011;20617;49.476;10.986;2023-01-13T07:04:40;2.03;;;1.05;;
12878;SDS011;20617;49.476;10.986;2023-01-13T07:06:47;1.58;;;0.85;;
12878;SDS011;20617;49.476;10.986;2023-01-13T07:08:51;1.20;;;0.88;;
12878;SDS011;20617;49.476;10.986;2023-01-13T07:11:00;5.18;;;0.95;;
12878;SDS011;20617;49.476;10.986;2023-01-13T07:13:05;4.18;;;1.10;;
12878;SDS011;20617;49.476;10.986;2023-01-13T07:15:22;1.88;;;0.80;;
12878;SDS011;20617;49.476;10.986;2023-01-13T07:19:32;2.75;;;1.10;;
12878;SDS011;20617;49.476;10.986;2023-01-13T07:21:39;1.70;;;1.02;;
12878;SDS011;20617;49.476;10.986;2023-01-13T07:23:45;2.03;;;1.02;;
12878;SDS011;20617;49.476;10.986;2023-01-13T07:25:51;2.28;;;0.85;;
12878;SDS011;20617;49.476;10.986;2023-01-13T07:27:58;2.30;;;1.02;;
12878;SDS011;20617;49.476;10.986;2023-01-13T07:30:04;2.03;;;0.80;;
12878;SDS011;20617;49.476;10.986;2023-01-13T07:32:10;1.88;;;1.08;;
12878;SDS011;20617;49.476;10.986;2023-01-13T07:34:16;2.63;;;1.25;;
12878;SDS011;20617;49.476;10.986;2023-01-13T07:36:21;2.50;;;1.20;;
12878;SDS011;20617;49.476;10.986;2023-01-13T07:38:28;8.18;;;2.53;;
12878;SDS011;20617;49.476;10.986;2023-01-13T07:40:34;3.85;;;1.95;;
12878;SDS011;20617;49.476;10.986;2023-01-13T07:44:56;3.28;;;1.92;;
12878;SDS011;20617;49.476;10.986;2023-01-13T07:47:03;3.92;;;1.42;;
12878;SDS011;20617;49.476;10.986;2023-01-13T07:49:09;4.97;;;1.88;;
12878;SDS011;20617;49.476;10.986;2023-01-13T07:51:14;6.00;;;1.88;;
12878;SDS011;20617;49.476;10.986;2023-01-13T07:53:19;6.32;;;1.58;;
12878;SDS011;20617;49.476;10.986;2023-01-13T07:55:28;2.60;;;1.48;;
12878;SDS011;20617;49.476;10.986;2023-01-13T07:57:32;1.95;;;1.30;;
12878;SDS011;20617;49.476;10.986;2023-01-13T07:59:37;2.35;;;1.20;;
12878;SDS011;20617;49.476;10.986;2023-01-13T08:01:42;2.35;;;1.08;;
12878;SDS011;20617;49.476;10.986;2023-01-13T08:05:52;4.10;;;1.70;;
12878;SDS011;20617;49.476;10.986;2023-01-13T08:07:57;3.00;;;1.27;;
12878;SDS011;20617;49.476;10.986;2023-01-13T08:10:02;3.53;;;1.00;;
12878;SDS011;20617;49.476;10.986;2023-01-13T08:12:10;4.13;;;1.20;;
12878;SDS011;20617;49.476;10.986;2023-01-13T08:14:27;4.60;;;1.25;;
12878;SDS011;20617;49.476;10.986;2023-01-13T08:16:32;3.13;;;1.05;;
12878;SDS011;20617;49.476;10.986;2023-01-13T08:18:37;2.85;;;1.10;;
12878;SDS011;20617;49.476;10.986;2023-01-13T08:20:42;2.08;;;1.00;;
12878;SDS011;20617;49.476;10.986;2023-01-13T08:22:49;2.10;;;1.05;;
12878;SDS011;20617;49.476;10.986;2023-01-13T08:24:54;1.83;;;1.10;;
12878;SDS011;20617;49.476;10.986;2023-01-13T08:26:58;2.15;;;1.08;;
12878;SDS011;20617;49.476;10.986;2023-01-13T08:29:06;2.47;;;1.00;;
12878;SDS011;20617;49.476;10.986;2023-01-13T08:31:14;2.30;;;0.90;;
12878;SDS011;20617;49.476;10.986;2023-01-13T08:33:22;3.83;;;1.02;;
12878;SDS011;20617;49.476;10.986;2023-01-13T08:35:27;2.97;;;1.00;;
12878;SDS011;20617;49.476;10.986;2023-01-13T08:37:32;1.98;;;1.00;;
12878;SDS011;20617;49.476;10.986;2023-01-13T08:39:36;2.33;;;1.17;;
12878;SDS011;20617;49.476;10.986;2023-01-13T08:41:42;1.40;;;1.00;;
12878;SDS011;20617;49.476;10.986;2023-01-13T08:43:59;1.42;;;0.90;;
12878;SDS011;20617;49.476;10.986;2023-01-13T08:46:06;2.92;;;0.98;;
12878;SDS011;20617;49.476;10.986;2023-01-13T08:48:12;2.78;;;0.95;;
12878;SDS011;20617;49.476;10.986;2023-01-13T08:50:17;2.78;;;1.67;;
12878;SDS011;20617;49.476;10.986;2023-01-13T08:52:22;2.17;;;1.27;;
12878;SDS011;20617;49.476;10.986;2023-01-13T08:56:32;2.78;;;1.05;;
12878;SDS011;20617;49.476;10.986;2023-01-13T08:58:37;1.08;;;0.95;;
12878;SDS011;20617;49.476;10.986;2023-01-13T09:00:42;1.85;;;1.05;;
12878;SDS011;20617;49.476;10.986;2023-01-13T09:02:50;2.97;;;1.00;;
12878;SDS011;20617;49.476;10.986;2023-01-13T09:04:55;1.80;;;1.27;;
12878;SDS011;20617;49.476;10.986;2023-01-13T09:07:00;1.27;;;0.90;;
12878;SDS011;20617;49.476;10.986;2023-01-13T09:09:05;2.50;;;0.82;;
12878;SDS011;20617;49.476;10.986;2023-01-13T09:11:10;6.40;;;1.52;;
12878;SDS011;20617;49.476;10.986;2023-01-13T09:13:34;1.98;;;1.10;;
12878;SDS011;20617;49.476;10.986;2023-01-13T09:15:40;3.03;;;1.27;;
12878;SDS011;20617;49.476;10.986;2023-01-13T09:17:51;2.20;;;1.20;;
12878;SDS011;20617;49.476;10.986;2023-01-13T09:19:55;2.38;;;1.30;;
12878;SDS011;20617;49.476;10.986;2023-01-13T09:22:00;3.60;;;1.65;;
12878;SDS011;20617;49.476;10.986;2023-01-13T09:26:11;2.40;;;1.20;;
12878;SDS011;20617;49.476;10.986;2023-01-13T09:28:17;1.50;;;1.20;;
12878;SDS011;20617;49.476;10.986;2023-01-13T09:30:24;1.85;;;1.15;;
12878;SDS011;20617;49.476;10.986;2023-01-13T09:32:29;1.98;;;0.85;;
12878;SDS011;20617;49.476;10.986;2023-01-13T09:36:54;3.03;;;0.90;;
12878;SDS011;20617;49.476;10.986;2023-01-13T09:38:59;2.78;;;1.00;;
12878;SDS011;20617;49.476;10.986;2023-01-13T09:41:03;1.60;;;1.00;;
12878;SDS011;20617;49.476;10.986;2023-01-13T09:43:30;3.37;;;1.20;;
12878;SDS011;20617;49.476;10.986;2023-01-13T09:45:54;2.53;;;1.10;;
12878;SDS011;20617;49.476;10.986;2023-01-13T09:48:04;2.63;;;1.38;;
12878;SDS011;20617;49.476;10.986;2023-01-13T09:50:28;1.85;;;1.20;;
12878;SDS011;20617;49.476;10.986;2023-01-13T09:52:41;1.50;;;0.98;;
12878;SDS011;20617;49.476;10.986;2023-01-13T09:54:47;2.70;;;1.10;;
12878;SDS011;20617;49.476;10.986;2023-01-13T09:56:55;4.22;;;0.88;;
12878;SDS011;20617;49.476;10.986;2023-01-13T09:59:00;9.80;;;1.73;;
12878;SDS011;20617;49.476;10.986;2023-01-13T10:03:31;2.47;;;1.17;;
12878;SDS011;20617;49.476;10.986;2023-01-13T10:05:41;4.22;;;1.80;;
12878;SDS011;20617;49.476;10.986;2023-01-13T10:07:51;3.47;;;1.80;;
12878;SDS011;20617;49.476;10.986;2023-01-13T10:10:00;4.90;;;1.60;;
12878;SDS011;20617;49.476;10.986;2023-01-13T10:12:10;8.10;;;1.50;;
12878;SDS011;20617;49.476;10.986;2023-01-13T10:14:48;2.38;;;1.25;;
12878;SDS011;20617;49.476;10.986;2023-01-13T10:16:58;1.50;;;0.90;;
12878;SDS011;20617;49.476;10.986;2023-01-13T10:19:15;3.97;;;1.30;;
12878;SDS011;20617;49.476;10.986;2023-01-13T10:21:30;4.90;;;1.77;;
12878;SDS011;20617;49.476;10.986;2023-01-13T10:23:55;7.00;;;1.60;;
12878;SDS011;20617;49.476;10.986;2023-01-13T10:26:08;4.40;;;2.15;;
12878;SDS011;20617;49.476;10.986;2023-01-13T10:28:24;3.03;;;1.40;;
12878;SDS011;20617;49.476;10.986;2023-01-13T10:30:32;6.65;;;2.22;;
12878;SDS011;20617;49.476;10.986;2023-01-13T10:32:41;4.18;;;3.17;;
12878;SDS011;20617;49.476;10.986;2023-01-13T10:34:47;4.20;;;2.08;;
12878;SDS011;20617;49.476;10.986;2023-01-13T10:37:01;1.55;;;1.38;;
12878;SDS011;20617;49.476;10.986;2023-01-13T10:39:09;3.72;;;1.83;;
12878;SDS011;20617;49.476;10.986;2023-01-13T10:41:24;2.40;;;1.20;;
12878;SDS011;20617;49.476;10.986;2023-01-13T10:43:31;5.53;;;0.90;;
12878;SDS011;20617;49.476;10.986;2023-01-13T10:45:36;1.65;;;0.70;;
12878;SDS011;20617;49.476;10.986;2023-01-13T10:47:41;2.88;;;0.70;;
12878;SDS011;20617;49.476;10.986;2023-01-13T10:54:49;0.65;;;0.47;;
12878;SDS011;20617;49.476;10.986;2023-01-13T10:59:22;0.65;;;0.50;;
12878;SDS011;20617;49.476;10.986;2023-01-13T11:01:29;5.88;;;1.33;;
12878;SDS011;20617;49.476;10.986;2023-01-13T11:03:35;1.80;;;0.50;;
12878;SDS011;20617;49.476;10.986;2023-01-13T11:05:48;3.42;;;0.90;;
12878;SDS011;20617;49.476;10.986;2023-01-13T11:07:57;3.10;;;0.80;;
12878;SDS011;20617;49.476;10.986;2023-01-13T11:10:05;2.10;;;0.73;;
12878;SDS011;20617;49.476;10.986;2023-01-13T11:12:29;4.25;;;1.33;;
12878;SDS011;20617;49.476;10.986;2023-01-13T11:14:36;2.45;;;1.10;;
12878;SDS011;20617;49.476;10.986;2023-01-13T11:16:45;1.67;;;1.05;;
12878;SDS011;20617;49.476;10.986;2023-01-13T11:18:56;4.47;;;0.90;;
12878;SDS011;20617;49.476;10.986;2023-01-13T11:21:16;1.95;;;0.70;;
12878;SDS011;20617;49.476;10.986;2023-01-13T11:23:31;3.38;;;1.10;;
12878;SDS011;20617;49.476;10.986;2023-01-13T11:25:41;1.85;;;0.93;;
12878;SDS011;20617;49.476;10.986;2023-01-13T11:27:48;2.45;;;0.80;;
12878;SDS011;20617;49.476;10.986;2023-01-13T11:30:01;3.55;;;1.10;;
12878;SDS011;20617;49.476;10.986;2023-01-13T11:32:16;2.70;;;0.90;;
12878;SDS011;20617;49.476;10.986;2023-01-13T11:34:25;1.98;;;0.73;;
12878;SDS011;20617;49.476;10.986;2023-01-13T11:36:33;1.73;;;0.70;;
12878;SDS011;20617;49.476;10.986;2023-01-13T11:38:46;2.28;;;1.23;;
12878;SDS011;20617;49.476;10.986;2023-01-13T11:40:55;3.53;;;0.80;;
12878;SDS011;20617;49.476;10.986;2023-01-13T11:43:07;1.42;;;0.82;;
12878;SDS011;20617;49.476;10.986;2023-01-13T11:45:19;2.58;;;1.23;;
12878;SDS011;20617;49.476;10.986;2023-01-13T11:47:27;2.35;;;1.00;;
12878;SDS011;20617;49.476;10.986;2023-01-13T11:49:33;1.83;;;1.00;;
12878;SDS011;20617;49.476;10.986;2023-01-13T11:51:39;2.03;;;0.90;;
12878;SDS011;20617;49.476;10.986;2023-01-13T11:53:57;1.73;;;0.90;;
12878;SDS011;20617;49.476;10.986;2023-01-13T11:56:17;1.27;;;0.70;;
12878;SDS011;20617;49.476;10.986;2023-01-13T11:58:39;2.72;;;0.82;;
12878;SDS011;20617;49.476;10.986;2023-01-13T12:01:14;2.15;;;1.13;;
12878;SDS011;20617;49.476;10.986;2023-01-13T12:03:29;2.25;;;0.73;;
12878;SDS011;20617;49.476;10.986;2023-01-13T12:05:39;4.07;;;0.90;;
12878;SDS011;20617;49.476;10.986;2023-01-13T12:07:49;2.33;;;0.93;;
12878;SDS011;20617;49.476;10.986;2023-01-13T12:10:05;3.70;;;0.90;;
12878;SDS011;20617;49.476;10.986;2023-01-13T12:12:16;3.42;;;0.98;;
12878;SDS011;20617;49.476;10.986;2023-01-13T12:14:36;1.88;;;0.90;;
12878;SDS011;20617;49.476;10.986;2023-01-13T12:16:49;2.30;;;1.00;;
12878;SDS011;20617;49.476;10.986;2023-01-13T12:18:58;1.85;;;0.88;;
12878;SDS011;20617;49.476;10.986;2023-01-13T12:21:22;2.03;;;0.88;;
12878;SDS011;20617;49.476;10.986;2023-01-13T12:23:31;1.90;;;0.95;;
12878;SDS011;20617;49.476;10.986;2023-01-13T12:25:41;2.85;;;0.93;;
12878;SDS011;20617;49.476;10.986;2023-01-13T12:27:50;4.72;;;0.90;;
12878;SDS011;20617;49.476;10.986;2023-01-13T12:30:02;2.95;;;0.90;;
12878;SDS011;20617;49.476;10.986;2023-01-13T12:32:30;5.43;;;1.25;;
12878;SDS011;20617;49.476;10.986;2023-01-13T12:34:43;3.05;;;1.33;;
12878;SDS011;20617;49.476;10.986;2023-01-13T12:36:56;2.00;;;1.00;;
12878;SDS011;20617;49.476;10.986;2023-01-13T12:39:13;3.53;;;1.13;;
12878;SDS011;20617;49.476;10.986;2023-01-13T12:41:32;4.47;;;1.58;;
12878;SDS011;20617;49.476;10.986;2023-01-13T12:44:03;3.70;;;1.10;;
12878;SDS011;20617;49.476;10.986;2023-01-13T12:49:06;18.35;;;1.83;;
12878;SDS011;20617;49.476;10.986;2023-01-13T12:51:21;13.30;;;1.45;;
12878;SDS011;20617;49.476;10.986;2023-01-13T12:53:31;6.93;;;1.50;;
12878;SDS011;20617;49.476;10.986;2023-01-13T12:55:39;5.40;;;1.20;;
12878;SDS011;20617;49.476;10.986;2023-01-13T13:00:22;6.10;;;1.65;;
12878;SDS011;20617;49.476;10.986;2023-01-13T13:02:28;7.85;;;1.67;;
12878;SDS011;20617;49.476;10.986;2023-01-13T13:04:41;4.07;;;1.13;;
12878;SDS011;20617;49.476;10.986;2023-01-13T13:06:50;5.97;;;1.40;;
12878;SDS011;20617;49.476;10.986;2023-01-13T13:09:01;4.72;;;1.40;;
12878;SDS011;20617;49.476;10.986;2023-01-13T13:11:18;4.03;;;1.10;;
12878;SDS011;20617;49.476;10.986;2023-01-13T13:13:39;5.13;;;1.52;;
12878;SDS011;20617;49.476;10.986;2023-01-13T13:15:49;2.72;;;1.10;;
12878;SDS011;20617;49.476;10.986;2023-01-13T13:18:03;5.72;;;0.95;;
12878;SDS011;20617;49.476;10.986;2023-01-13T13:23:28;5.40;;;1.45;;
12878;SDS011;20617;49.476;10.986;2023-01-13T13:25:57;4.28;;;1.10;;
12878;SDS011;20617;49.476;10.986;2023-01-13T13:28:14;4.80;;;1.33;;
12878;SDS011;20617;49.476;10.986;2023-01-13T13:30:22;4.65;;;1.00;;
12878;SDS011;20617;49.476;10.986;2023-01-13T13:32:40;4.82;;;1.50;;
12878;SDS011;20617;49.476;10.986;2023-01-13T13:35:00;4.90;;;1.60;;
12878;SDS011;20617;49.476;10.986;2023-01-13T13:37:31;4.00;;;1.25;;
12878;SDS011;20617;49.476;10.986;2023-01-13T13:40:06;2.83;;;1.23;;
12878;SDS011;20617;49.476;10.986;2023-01-13T13:42:26;4.25;;;1.10;;
12878;SDS011;20617;49.476;10.986;2023-01-13T13:44:45;4.03;;;1.25;;
12878;SDS011;20617;49.476;10.986;2023-01-13T13:47:05;6.28;;;0.90;;
12878;SDS011;20617;49.476;10.986;2023-01-13T13:49:13;4.15;;;1.27;;